createdAt,value
2023-01-08T00:00:35.584Z,35.41
2023-01-08T00:01:35.485Z,36.21
2023-01-08T00:02:35.600Z,36.32
2023-01-08T00:03:35.564Z,36.52
2023-01-08T00:04:35.434Z,35.99
2023-01-08T00:05:35.425Z,35.90
2023-01-08T00:06:35.689Z,35.68
2023-01-08T00:07:35.401Z,35.60
2023-01-08T00:08:35.433Z,35.57
2023-01-08T00:09:35.378Z,35.50
2023-01-08T00:10:35.371Z,35.49
2023-01-08T00:11:35.370Z,35.33
2023-01-08T00:12:35.372Z,35.32
2023-01-08T00:13:35.439Z,35.32
2023-01-08T00:14:35.333Z,35.24
2023-01-08T00:15:35.363Z,35.23
2023-01-08T00:16:35.349Z,35.09
2023-01-08T00:17:35.325Z,35.06
2023-01-08T00:18:35.526Z,35.01
2023-01-08T00:19:35.305Z,34.91
2023-01-08T00:20:35.312Z,35.02
2023-01-08T00:21:35.306Z,34.97
2023-01-08T00:22:35.279Z,34.80
2023-01-08T00:23:35.295Z,34.87
2023-01-08T00:24:35.269Z,34.86
2023-01-08T00:25:35.257Z,34.75
2023-01-08T00:26:35.289Z,34.85
2023-01-08T00:27:35.232Z,34.78
2023-01-08T00:28:35.230Z,34.82
2023-01-08T00:29:35.242Z,34.86
2023-01-08T00:30:35.244Z,34.82
2023-01-08T00:31:35.205Z,34.83
2023-01-08T00:32:35.190Z,34.81
2023-01-08T00:33:35.201Z,34.79
2023-01-08T00:34:35.239Z,34.81
2023-01-08T00:35:35.183Z,34.78
2023-01-08T00:36:35.450Z,34.75
2023-01-08T00:37:35.151Z,34.64
2023-01-08T00:38:35.143Z,34.67
2023-01-08T00:39:35.150Z,34.71
2023-01-08T00:40:35.161Z,34.63
2023-01-08T00:41:35.101Z,34.59
2023-01-08T00:42:35.127Z,34.67
2023-01-08T00:43:35.106Z,34.58
2023-01-08T00:44:35.112Z,34.62
2023-01-08T00:45:35.096Z,34.77
2023-01-08T00:46:35.143Z,34.67
2023-01-08T00:47:35.052Z,34.64
2023-01-08T00:48:35.054Z,34.60
2023-01-08T00:49:35.049Z,34.50
2023-01-08T00:50:35.133Z,34.59
2023-01-08T00:51:35.033Z,34.53
2023-01-08T00:52:35.067Z,34.56
2023-01-08T00:53:35.004Z,34.55
2023-01-08T00:54:35.021Z,34.35
2023-01-08T00:55:35.002Z,34.32
2023-01-08T00:56:34.981Z,34.45
2023-01-08T00:57:34.987Z,34.38
2023-01-08T00:58:34.995Z,34.32
2023-01-08T00:59:34.986Z,34.45
2023-01-08T01:00:35.005Z,34.36
2023-01-08T01:01:35.067Z,34.41
2023-01-08T01:02:34.923Z,34.36
2023-01-08T01:03:34.918Z,34.37
2023-01-08T01:04:34.953Z,34.33
2023-01-08T01:05:34.937Z,34.31
2023-01-08T01:06:34.940Z,34.28
2023-01-08T01:07:34.890Z,34.23
2023-01-08T01:08:34.887Z,34.09
2023-01-08T01:09:34.889Z,34.02
2023-01-08T01:10:34.886Z,34.14
2023-01-08T01:11:34.882Z,34.06
2023-01-08T01:12:34.855Z,34.10
2023-01-08T01:13:34.837Z,33.97
2023-01-08T01:14:34.832Z,34.01
2023-01-08T01:15:34.851Z,33.99
2023-01-08T01:16:34.843Z,34.02
2023-01-08T01:17:34.809Z,33.91
2023-01-08T01:18:34.796Z,33.92
2023-01-08T01:19:34.793Z,33.92
2023-01-08T01:20:34.807Z,33.82
2023-01-08T01:21:34.771Z,34.02
2023-01-08T01:22:34.852Z,33.75
2023-01-08T01:23:34.748Z,33.91
2023-01-08T01:24:34.742Z,33.90
2023-01-08T01:25:34.739Z,33.85
2023-01-08T01:26:34.759Z,33.78
2023-01-08T01:27:34.729Z,33.86
2023-01-08T01:28:34.704Z,33.77
2023-01-08T01:29:34.744Z,33.82
2023-01-08T01:30:34.742Z,33.65
2023-01-08T01:31:34.688Z,33.59
2023-01-08T01:32:34.702Z,33.78
2023-01-08T01:33:34.654Z,33.95
2023-01-08T01:34:34.656Z,33.79
2023-01-08T01:35:34.692Z,33.87
2023-01-08T01:36:34.650Z,33.80
2023-01-08T01:37:34.638Z,33.72
2023-01-08T01:38:34.695Z,33.70
2023-01-08T01:39:34.611Z,33.74
2023-01-08T01:40:34.604Z,33.80
2023-01-08T01:41:34.622Z,33.63
2023-01-08T01:42:34.587Z,33.69
2023-01-08T01:43:34.597Z,33.59
2023-01-08T01:44:34.562Z,33.55
2023-01-08T01:45:34.624Z,33.56
2023-01-08T01:46:34.556Z,33.51
2023-01-08T01:47:34.566Z,33.55
2023-01-08T01:48:34.555Z,33.58
2023-01-08T01:49:34.535Z,33.55
2023-01-08T01:50:34.546Z,33.51
2023-01-08T01:51:34.522Z,33.56
2023-01-08T01:52:34.526Z,33.61
2023-01-08T01:53:34.503Z,33.47
2023-01-08T01:54:34.556Z,33.53
2023-01-08T01:55:34.472Z,33.54
2023-01-08T01:56:34.469Z,33.39
2023-01-08T01:57:34.471Z,33.55
2023-01-08T01:58:34.446Z,33.40
2023-01-08T01:59:34.447Z,34.74
2023-01-08T02:00:34.447Z,35.75
2023-01-08T02:01:34.557Z,35.55
2023-01-08T02:02:34.499Z,34.60
2023-01-08T02:03:34.415Z,39.48
2023-01-08T02:04:34.395Z,43.80
2023-01-08T02:05:34.390Z,46.57
2023-01-08T02:06:34.385Z,49.36
2023-01-08T02:07:34.385Z,50.48
2023-01-08T02:08:34.358Z,50.24
2023-01-08T02:09:34.351Z,48.92
2023-01-08T02:10:34.408Z,48.87
2023-01-08T02:11:34.355Z,49.09
2023-01-08T02:12:34.346Z,48.98
2023-01-08T02:13:34.337Z,48.32
2023-01-08T02:14:34.309Z,47.03
2023-01-08T02:15:34.307Z,47.08
2023-01-08T02:16:34.362Z,45.61
2023-01-08T02:17:34.279Z,44.85
2023-01-08T02:18:34.284Z,43.75
2023-01-08T02:19:34.308Z,46.84
2023-01-08T02:20:34.270Z,47.00
2023-01-08T02:21:34.256Z,44.67
2023-01-08T02:22:34.240Z,45.60
2023-01-08T02:23:34.244Z,45.64
2023-01-08T02:24:34.248Z,44.87
2023-01-08T02:25:34.209Z,45.99
2023-01-08T02:26:34.290Z,46.01
2023-01-08T02:27:34.208Z,44.63
2023-01-08T02:28:34.197Z,43.24
2023-01-08T02:29:34.184Z,43.09
2023-01-08T02:30:34.246Z,43.35
2023-01-08T02:31:34.159Z,45.33
2023-01-08T02:32:34.146Z,44.45
2023-01-08T02:33:34.153Z,43.64
2023-01-08T02:34:34.153Z,43.08
2023-01-08T02:35:34.154Z,42.74
2023-01-08T02:36:34.121Z,43.44
2023-01-08T02:37:34.110Z,43.02
2023-01-08T02:38:34.099Z,43.17
2023-01-08T02:39:34.110Z,43.37
2023-01-08T02:40:34.074Z,43.99
2023-01-08T02:41:34.077Z,43.44
2023-01-08T02:42:34.204Z,43.40
2023-01-08T02:43:34.081Z,43.56
2023-01-08T02:44:34.065Z,45.44
2023-01-08T02:45:34.037Z,45.07
2023-01-08T02:46:34.028Z,44.37
2023-01-08T02:47:34.037Z,45.43
2023-01-08T02:48:34.017Z,44.87
2023-01-08T02:49:34.007Z,44.70
2023-01-08T02:50:34.061Z,44.74
2023-01-08T02:51:33.999Z,45.00
2023-01-08T02:52:33.980Z,45.09
2023-01-08T02:53:33.973Z,44.08
2023-01-08T02:54:33.987Z,44.38
2023-01-08T02:55:33.958Z,43.81
2023-01-08T02:56:33.948Z,43.42
2023-01-08T02:57:33.941Z,43.14
2023-01-08T02:58:33.997Z,43.02
2023-01-08T02:59:33.998Z,42.82
2023-01-08T03:00:33.927Z,42.44
2023-01-08T03:01:34.027Z,42.22
2023-01-08T03:02:33.934Z,42.16
2023-01-08T03:03:33.898Z,41.86
2023-01-08T03:04:33.963Z,41.62
2023-01-08T03:05:33.876Z,41.46
2023-01-08T03:06:33.850Z,41.29
2023-01-08T03:07:33.847Z,40.51
2023-01-08T03:08:33.841Z,40.73
2023-01-08T03:09:33.858Z,40.51
2023-01-08T03:10:33.832Z,40.01
2023-01-08T03:11:33.936Z,40.61
2023-01-08T03:12:33.803Z,40.89
2023-01-08T03:13:33.801Z,40.58
2023-01-08T03:14:33.859Z,40.37
2023-01-08T03:15:33.868Z,40.62
2023-01-08T03:16:33.814Z,40.84
2023-01-08T03:17:33.831Z,40.61
2023-01-08T03:18:33.760Z,40.24
2023-01-08T03:19:33.745Z,40.24
2023-01-08T03:20:33.731Z,40.00
2023-01-08T03:21:33.857Z,39.85
2023-01-08T03:22:33.753Z,39.84
2023-01-08T03:23:33.721Z,39.48
2023-01-08T03:24:33.692Z,39.64
2023-01-08T03:25:33.696Z,39.32
2023-01-08T03:26:33.689Z,39.61
2023-01-08T03:27:33.700Z,39.29
2023-01-08T03:28:33.696Z,39.41
2023-01-08T03:29:33.661Z,39.10
2023-01-08T03:30:33.810Z,39.04
2023-01-08T03:31:33.644Z,38.84
2023-01-08T03:32:33.631Z,38.80
2023-01-08T03:33:33.633Z,38.65
2023-01-08T03:34:33.623Z,38.86
2023-01-08T03:35:33.621Z,38.56
2023-01-08T03:36:33.592Z,38.62
2023-01-08T03:37:33.588Z,38.63
2023-01-08T03:38:33.585Z,38.63
2023-01-08T03:39:33.581Z,38.58
2023-01-08T03:40:33.588Z,38.31
2023-01-08T03:41:33.565Z,38.16
2023-01-08T03:42:33.557Z,38.48
2023-01-08T03:43:33.530Z,38.41
2023-01-08T03:44:33.533Z,37.99
2023-01-08T03:45:33.544Z,38.23
2023-01-08T03:46:33.659Z,38.20
2023-01-08T03:47:33.499Z,38.12
2023-01-08T03:48:33.516Z,37.78
2023-01-08T03:49:33.491Z,37.96
2023-01-08T03:50:33.496Z,38.00
2023-01-08T03:51:33.467Z,38.10
2023-01-08T03:52:33.455Z,38.15
2023-01-08T03:53:33.451Z,37.98
2023-01-08T03:54:33.474Z,37.84
2023-01-08T03:55:33.428Z,37.93
2023-01-08T03:56:33.437Z,38.08
2023-01-08T03:57:33.424Z,37.84
2023-01-08T03:58:33.408Z,37.57
2023-01-08T03:59:33.419Z,37.70
2023-01-08T04:00:33.392Z,37.72
2023-01-08T04:01:33.427Z,37.77
2023-01-08T04:02:33.594Z,37.71
2023-01-08T04:03:33.391Z,37.68
2023-01-08T04:04:33.411Z,37.65
2023-01-08T04:05:33.373Z,37.49
2023-01-08T04:06:33.331Z,37.48
2023-01-08T04:07:33.330Z,37.48
2023-01-08T04:08:33.349Z,37.57
2023-01-08T04:09:33.309Z,37.51
2023-01-08T04:10:33.323Z,37.43
2023-01-08T04:11:33.325Z,37.34
2023-01-08T04:12:33.288Z,37.40
2023-01-08T04:13:33.279Z,37.28
2023-01-08T04:14:33.269Z,37.27
2023-01-08T04:15:33.316Z,37.33
2023-01-08T04:16:33.256Z,37.26
2023-01-08T04:17:33.291Z,37.25
2023-01-08T04:18:33.307Z,37.14
2023-01-08T04:19:33.223Z,37.35
2023-01-08T04:20:33.229Z,37.18
2023-01-08T04:21:33.210Z,37.22
2023-01-08T04:22:33.235Z,37.50
2023-01-08T04:23:33.192Z,38.05
2023-01-08T04:24:33.185Z,38.02
2023-01-08T04:25:33.179Z,38.52
2023-01-08T04:26:33.165Z,39.03
2023-01-08T04:27:33.157Z,39.45
2023-01-08T04:28:33.174Z,39.07
2023-01-08T04:29:33.145Z,39.25
2023-01-08T04:30:33.165Z,39.45
2023-01-08T04:31:33.134Z,39.13
2023-01-08T04:32:33.116Z,39.51
2023-01-08T04:33:33.112Z,39.97
2023-01-08T04:34:33.190Z,40.56
2023-01-08T04:35:33.086Z,40.22
2023-01-08T04:36:33.086Z,39.98
2023-01-08T04:37:33.077Z,40.11
2023-01-08T04:38:33.061Z,40.03
2023-01-08T04:39:33.078Z,39.90
2023-01-08T04:40:33.055Z,39.93
2023-01-08T04:41:33.037Z,40.37
2023-01-08T04:42:33.045Z,39.82
2023-01-08T04:43:33.041Z,39.70
2023-01-08T04:44:33.045Z,39.96
2023-01-08T04:45:32.999Z,39.84
2023-01-08T04:46:33.035Z,39.78
2023-01-08T04:47:32.979Z,39.96
2023-01-08T04:48:32.993Z,39.78
2023-01-08T04:49:32.976Z,39.84
2023-01-08T04:50:33.030Z,39.70
2023-01-08T04:51:32.974Z,39.64
2023-01-08T04:52:32.964Z,39.75
2023-01-08T04:53:32.947Z,39.41
2023-01-08T04:54:32.927Z,39.48
2023-01-08T04:55:32.916Z,39.45
2023-01-08T04:56:32.904Z,39.22
2023-01-08T04:57:32.918Z,39.11
2023-01-08T04:58:32.884Z,39.05
2023-01-08T04:59:32.886Z,38.86
2023-01-08T05:00:32.875Z,39.08
2023-01-08T05:01:33.074Z,38.68
2023-01-08T05:02:33.033Z,38.44
2023-01-08T05:03:32.904Z,38.36
2023-01-08T05:04:32.839Z,37.95
2023-01-08T05:05:32.821Z,37.82
2023-01-08T05:06:32.961Z,37.88
2023-01-08T05:07:32.811Z,37.77
2023-01-08T05:08:32.825Z,37.64
2023-01-08T05:09:32.793Z,37.54
2023-01-08T05:10:32.782Z,37.45
2023-01-08T05:11:32.775Z,37.47
2023-01-08T05:12:32.793Z,37.37
2023-01-08T05:13:32.764Z,37.29
2023-01-08T05:14:32.744Z,37.15
2023-01-08T05:15:32.790Z,37.11
2023-01-08T05:16:32.747Z,37.04
2023-01-08T05:17:32.754Z,36.98
2023-01-08T05:18:32.774Z,36.89
2023-01-08T05:19:32.739Z,36.86
2023-01-08T05:20:32.700Z,36.90
2023-01-08T05:21:32.691Z,36.73
2023-01-08T05:22:32.788Z,36.75
2023-01-08T05:23:32.721Z,36.65
2023-01-08T05:24:32.660Z,36.53
2023-01-08T05:25:32.643Z,36.60
2023-01-08T05:26:32.652Z,36.56
2023-01-08T05:27:32.640Z,36.54
2023-01-08T05:28:32.657Z,36.48
2023-01-08T05:29:32.644Z,36.43
2023-01-08T05:30:32.625Z,36.42
2023-01-08T05:31:32.730Z,36.44
2023-01-08T05:32:32.592Z,36.32
2023-01-08T05:33:32.613Z,36.34
2023-01-08T05:34:32.582Z,36.24
2023-01-08T05:35:32.559Z,36.44
2023-01-08T05:36:32.594Z,36.36
2023-01-08T05:37:32.540Z,36.30
2023-01-08T05:38:32.664Z,36.20
2023-01-08T05:39:32.536Z,36.15
2023-01-08T05:40:32.598Z,36.37
2023-01-08T05:41:32.518Z,36.22
2023-01-08T05:42:32.526Z,36.14
2023-01-08T05:43:32.495Z,36.09
2023-01-08T05:44:32.507Z,36.09
2023-01-08T05:45:32.485Z,36.06
2023-01-08T05:46:32.526Z,35.99
2023-01-08T05:47:32.459Z,35.91
2023-01-08T05:48:32.468Z,35.89
2023-01-08T05:49:32.466Z,36.07
2023-01-08T05:50:32.445Z,35.89
2023-01-08T05:51:32.421Z,35.98
2023-01-08T05:52:32.418Z,35.76
2023-01-08T05:53:32.426Z,36.07
2023-01-08T05:54:32.502Z,35.76
2023-01-08T05:55:32.385Z,35.71
2023-01-08T05:56:32.442Z,35.79
2023-01-08T05:57:32.388Z,35.79
2023-01-08T05:58:32.378Z,35.80
2023-01-08T05:59:32.354Z,35.78
2023-01-08T06:00:32.365Z,35.74
2023-01-08T06:01:32.383Z,35.77
2023-01-08T06:02:32.345Z,35.80
2023-01-08T06:03:32.330Z,35.63
2023-01-08T06:04:32.352Z,35.80
2023-01-08T06:05:32.328Z,35.74
2023-01-08T06:06:32.297Z,35.77
2023-01-08T06:07:32.306Z,35.77
2023-01-08T06:08:32.281Z,35.73
2023-01-08T06:09:32.284Z,35.70
2023-01-08T06:10:32.331Z,35.52
2023-01-08T06:11:32.280Z,35.65
2023-01-08T06:12:32.243Z,35.60
2023-01-08T06:13:32.241Z,35.56
2023-01-08T06:14:32.265Z,35.66
2023-01-08T06:15:32.283Z,35.46
2023-01-08T06:16:32.210Z,35.54
2023-01-08T06:17:32.225Z,35.43
2023-01-08T06:18:32.198Z,35.51
2023-01-08T06:19:32.183Z,35.40
2023-01-08T06:20:32.254Z,35.34
2023-01-08T06:21:32.188Z,35.33
2023-01-08T06:22:33.577Z,35.42
2023-01-08T06:23:32.141Z,35.25
2023-01-08T06:24:32.193Z,35.34
2023-01-08T06:25:32.122Z,35.15
2023-01-08T06:26:32.196Z,35.29
2023-01-08T06:27:32.121Z,35.31
2023-01-08T06:28:32.140Z,35.17
2023-01-08T06:29:32.109Z,35.14
2023-01-08T06:30:32.110Z,34.99
2023-01-08T06:31:32.107Z,35.19
2023-01-08T06:32:32.073Z,35.13
2023-01-08T06:33:32.069Z,35.00
2023-01-08T06:34:32.060Z,34.93
2023-01-08T06:35:32.099Z,35.32
2023-01-08T06:36:32.037Z,35.35
2023-01-08T06:37:32.035Z,35.21
2023-01-08T06:38:32.056Z,36.21
2023-01-08T06:39:32.033Z,35.75
2023-01-08T06:40:32.017Z,35.74
2023-01-08T06:41:31.987Z,35.64
2023-01-08T06:42:32.066Z,35.59
2023-01-08T06:43:31.989Z,35.72
2023-01-08T06:44:31.986Z,35.77
2023-01-08T06:45:32.004Z,35.81
2023-01-08T06:46:32.044Z,35.79
2023-01-08T06:47:31.987Z,35.58
2023-01-08T06:48:31.937Z,35.44
2023-01-08T06:49:31.932Z,35.36
2023-01-08T06:50:31.923Z,35.14
2023-01-08T06:51:31.932Z,35.17
2023-01-08T06:52:31.915Z,35.55
2023-01-08T06:53:31.888Z,35.91
2023-01-08T06:54:31.876Z,35.83
2023-01-08T06:55:31.913Z,35.21
2023-01-08T06:56:32.238Z,35.08
2023-01-08T06:57:31.888Z,34.65
2023-01-08T06:58:31.916Z,34.45
2023-01-08T06:59:31.833Z,34.48
2023-01-08T07:00:31.912Z,34.67
2023-01-08T07:01:31.933Z,34.55
2023-01-08T07:02:32.045Z,34.39
2023-01-08T07:03:31.880Z,34.19
2023-01-08T07:04:31.823Z,33.89
2023-01-08T07:05:31.778Z,34.07
2023-01-08T07:06:31.799Z,34.66
2023-01-08T07:07:31.766Z,34.93
2023-01-08T07:08:31.760Z,35.25
2023-01-08T07:09:31.751Z,35.49
2023-01-08T07:10:31.751Z,35.00
2023-01-08T07:11:31.745Z,34.80
2023-01-08T07:12:31.758Z,34.90
2023-01-08T07:13:31.714Z,34.86
2023-01-08T07:14:31.719Z,34.14
2023-01-08T07:15:31.737Z,34.49
2023-01-08T07:16:31.709Z,35.00
2023-01-08T07:17:31.741Z,35.19
2023-01-08T07:18:31.673Z,35.55
2023-01-08T07:19:31.666Z,34.44
2023-01-08T07:20:31.659Z,35.44
2023-01-08T07:21:31.669Z,34.97
2023-01-08T07:22:31.644Z,35.49
2023-01-08T07:23:31.644Z,35.56
2023-01-08T07:24:31.656Z,35.87
2023-01-08T07:25:31.615Z,35.93
2023-01-08T07:26:31.670Z,37.11
2023-01-08T07:27:31.606Z,36.12
2023-01-08T07:28:31.620Z,37.40
2023-01-08T07:29:31.584Z,38.20
2023-01-08T07:30:31.678Z,38.81
2023-01-08T07:31:31.655Z,38.62
2023-01-08T07:32:31.559Z,38.07
2023-01-08T07:33:31.560Z,38.41
2023-01-08T07:34:31.552Z,38.24
2023-01-08T07:35:31.524Z,37.81
2023-01-08T07:36:31.543Z,37.97
2023-01-08T07:37:31.511Z,37.94
2023-01-08T07:38:31.531Z,38.24
2023-01-08T07:39:31.510Z,37.76
2023-01-08T07:40:31.507Z,37.89
2023-01-08T07:41:31.503Z,38.06
2023-01-08T07:42:31.461Z,37.69
2023-01-08T07:43:31.466Z,37.80
2023-01-08T07:44:31.451Z,38.04
2023-01-08T07:45:31.466Z,38.04
2023-01-08T07:46:31.551Z,37.93
2023-01-08T07:47:31.446Z,38.21
2023-01-08T07:48:31.414Z,38.16
2023-01-08T07:49:31.421Z,38.36
2023-01-08T07:50:31.402Z,38.30
2023-01-08T07:51:31.392Z,38.36
2023-01-08T07:52:31.397Z,38.26
2023-01-08T07:53:31.380Z,38.30
2023-01-08T07:54:31.392Z,38.68
2023-01-08T07:55:31.349Z,38.54
2023-01-08T07:56:31.352Z,38.87
2023-01-08T07:57:31.341Z,38.89
2023-01-08T07:58:31.326Z,38.11
2023-01-08T07:59:31.317Z,38.67
2023-01-08T08:00:31.498Z,38.32
2023-01-08T08:01:31.382Z,38.73
2023-01-08T08:02:31.419Z,38.50
2023-01-08T08:03:31.363Z,38.63
2023-01-08T08:04:31.285Z,38.66
2023-01-08T08:05:31.309Z,38.53
2023-01-08T08:06:31.273Z,38.17
2023-01-08T08:07:31.264Z,38.25
2023-01-08T08:08:31.238Z,38.25
2023-01-08T08:09:31.221Z,38.60
2023-01-08T08:10:31.229Z,38.28
2023-01-08T08:11:31.252Z,38.38
2023-01-08T08:12:31.196Z,38.28
2023-01-08T08:13:31.202Z,38.21
2023-01-08T08:14:31.194Z,38.22
2023-01-08T08:15:31.225Z,38.02
2023-01-08T08:16:31.273Z,37.92
2023-01-08T08:17:31.169Z,37.81
2023-01-08T08:18:31.230Z,37.93
2023-01-08T08:19:31.133Z,37.72
2023-01-08T08:20:31.160Z,38.04
2023-01-08T08:21:31.146Z,37.69
2023-01-08T08:22:31.124Z,37.51
2023-01-08T08:23:31.108Z,37.58
2023-01-08T08:24:31.110Z,37.68
2023-01-08T08:25:31.096Z,37.52
2023-01-08T08:26:31.107Z,37.54
2023-01-08T08:27:31.075Z,37.58
2023-01-08T08:28:31.077Z,37.50
2023-01-08T08:29:31.057Z,37.61
2023-01-08T08:30:31.066Z,37.66
2023-01-08T08:31:31.120Z,37.57
2023-01-08T08:32:31.032Z,37.50
2023-01-08T08:33:31.021Z,37.44
2023-01-08T08:34:31.082Z,37.49
2023-01-08T08:35:31.007Z,37.58
2023-01-08T08:36:31.053Z,37.42
2023-01-08T08:37:30.983Z,37.46
2023-01-08T08:38:30.980Z,37.05
2023-01-08T08:39:30.983Z,37.39
2023-01-08T08:40:30.962Z,37.09
2023-01-08T08:41:30.987Z,37.27
2023-01-08T08:42:30.983Z,37.39
2023-01-08T08:43:30.948Z,37.31
2023-01-08T08:44:30.958Z,37.26
2023-01-08T08:45:30.918Z,37.03
2023-01-08T08:46:30.964Z,37.12
2023-01-08T08:47:30.922Z,36.86
2023-01-08T08:48:30.889Z,36.95
2023-01-08T08:49:30.896Z,37.12
2023-01-08T08:50:30.952Z,36.81
2023-01-08T08:51:30.871Z,36.89
2023-01-08T08:52:30.876Z,37.22
2023-01-08T08:53:30.852Z,36.99
2023-01-08T08:54:30.853Z,37.12
2023-01-08T08:55:30.877Z,36.99
2023-01-08T08:56:30.824Z,36.98
2023-01-08T08:57:30.817Z,37.09
2023-01-08T08:58:30.808Z,37.17
2023-01-08T08:59:30.801Z,36.89
2023-01-08T09:00:30.804Z,37.04
2023-01-08T09:01:30.893Z,37.04
2023-01-08T09:02:30.943Z,37.21
2023-01-08T09:03:30.871Z,37.00
2023-01-08T09:04:30.777Z,36.73
2023-01-08T09:05:30.747Z,36.69
2023-01-08T09:06:30.809Z,36.99
2023-01-08T09:07:30.739Z,36.95
2023-01-08T09:08:30.758Z,37.08
2023-01-08T09:09:30.716Z,36.94
2023-01-08T09:10:30.701Z,36.86
2023-01-08T09:11:30.700Z,36.86
2023-01-08T09:12:30.691Z,37.15
2023-01-08T09:13:30.695Z,37.27
2023-01-08T09:14:30.667Z,37.39
2023-01-08T09:15:30.676Z,37.47
2023-01-08T09:16:30.696Z,37.24
2023-01-08T09:17:30.642Z,36.83
2023-01-08T09:18:30.653Z,37.23
2023-01-08T09:19:30.660Z,37.27
2023-01-08T09:20:30.627Z,37.32
2023-01-08T09:21:30.602Z,37.40
2023-01-08T09:22:30.671Z,37.38
2023-01-08T09:23:30.609Z,37.44
2023-01-08T09:24:30.575Z,37.19
2023-01-08T09:25:30.574Z,37.16
2023-01-08T09:26:30.604Z,37.41
2023-01-08T09:27:30.563Z,37.18
2023-01-08T09:28:30.563Z,37.00
2023-01-08T09:29:30.566Z,37.26
2023-01-08T09:30:30.542Z,37.29
2023-01-08T09:31:30.587Z,37.78
2023-01-08T09:32:30.540Z,37.78
2023-01-08T09:33:30.504Z,37.72
2023-01-08T09:34:30.535Z,37.63
2023-01-08T09:35:30.536Z,37.60
2023-01-08T09:36:30.483Z,37.74
2023-01-08T09:37:30.465Z,37.82
2023-01-08T09:38:30.535Z,37.77
2023-01-08T09:39:30.456Z,37.62
2023-01-08T09:40:30.455Z,37.31
2023-01-08T09:41:30.460Z,37.37
2023-01-08T09:42:30.426Z,37.32
2023-01-08T09:43:30.442Z,37.31
2023-01-08T09:44:30.413Z,37.27
2023-01-08T09:45:30.402Z,36.80
2023-01-08T09:46:30.457Z,36.97
2023-01-08T09:47:30.418Z,36.94
2023-01-08T09:48:30.375Z,37.62
2023-01-08T09:49:30.363Z,37.21
2023-01-08T09:50:30.358Z,37.23
2023-01-08T09:51:30.354Z,37.29
2023-01-08T09:52:30.336Z,37.29
2023-01-08T09:53:30.356Z,37.43
2023-01-08T09:54:30.405Z,37.23
2023-01-08T09:55:30.331Z,37.10
2023-01-08T09:56:30.307Z,36.39
2023-01-08T09:57:30.301Z,37.02
2023-01-08T09:58:30.287Z,36.95
2023-01-08T09:59:30.281Z,37.33
2023-01-08T10:00:30.348Z,37.42
2023-01-08T10:01:30.336Z,37.24
2023-01-08T10:02:30.383Z,37.49
2023-01-08T10:03:30.252Z,37.19
2023-01-08T10:04:30.250Z,37.19
2023-01-08T10:05:30.251Z,36.68
2023-01-08T10:06:30.208Z,37.38
2023-01-08T10:07:30.215Z,37.78
2023-01-08T10:08:30.196Z,37.62
2023-01-08T10:09:30.233Z,37.65
2023-01-08T10:10:30.274Z,37.32
2023-01-08T10:11:30.172Z,37.00
2023-01-08T10:12:30.186Z,37.39
2023-01-08T10:13:30.165Z,37.73
2023-01-08T10:14:30.146Z,37.93
2023-01-08T10:15:30.147Z,37.79
2023-01-08T10:16:30.181Z,38.22
2023-01-08T10:17:30.128Z,38.28
2023-01-08T10:18:30.107Z,37.79
2023-01-08T10:19:30.107Z,38.13
2023-01-08T10:20:30.087Z,38.04
2023-01-08T10:21:30.115Z,38.03
2023-01-08T10:22:30.091Z,37.83
2023-01-08T10:23:30.113Z,37.85
2023-01-08T10:24:30.067Z,37.77
2023-01-08T10:25:30.043Z,38.25
2023-01-08T10:26:30.143Z,38.08
2023-01-08T10:27:30.072Z,37.58
2023-01-08T10:28:30.025Z,37.87
2023-01-08T10:29:30.018Z,37.54
2023-01-08T10:30:30.005Z,37.91
2023-01-08T10:31:30.043Z,38.07
2023-01-08T10:32:29.988Z,38.21
2023-01-08T10:33:29.999Z,38.27
2023-01-08T10:34:29.971Z,38.47
2023-01-08T10:35:29.969Z,38.36
2023-01-08T10:36:29.957Z,38.14
2023-01-08T10:37:29.956Z,37.47
2023-01-08T10:38:32.793Z,37.99
2023-01-08T10:39:29.935Z,37.67
2023-01-08T10:40:29.920Z,37.91
2023-01-08T10:41:30.030Z,38.10
2023-01-08T10:42:29.930Z,38.10
2023-01-08T10:43:29.894Z,37.75
2023-01-08T10:44:29.887Z,37.69
2023-01-08T10:45:29.895Z,36.84
2023-01-08T10:46:29.893Z,37.67
2023-01-08T10:47:29.868Z,38.36
2023-01-08T10:48:29.863Z,38.28
2023-01-08T10:49:29.851Z,37.95
2023-01-08T10:50:29.859Z,37.77
2023-01-08T10:51:29.826Z,37.47
2023-01-08T10:52:29.817Z,36.85
2023-01-08T10:53:29.811Z,37.22
2023-01-08T10:54:29.823Z,37.24
2023-01-08T10:55:29.789Z,37.52
2023-01-08T10:56:29.800Z,37.74
2023-01-08T10:57:29.781Z,37.70
2023-01-08T10:58:29.878Z,37.80
2023-01-08T10:59:29.777Z,37.78
2023-01-08T11:00:29.786Z,37.60
2023-01-08T11:01:29.759Z,37.40
2023-01-08T11:02:29.848Z,37.49
2023-01-08T11:03:29.759Z,37.53
2023-01-08T11:04:29.717Z,37.71
2023-01-08T11:05:29.732Z,37.60
2023-01-08T11:06:29.692Z,37.63
2023-01-08T11:07:29.688Z,37.58
2023-01-08T11:08:29.690Z,37.54
2023-01-08T11:09:29.716Z,37.46
2023-01-08T11:10:29.654Z,37.45
2023-01-08T11:11:29.653Z,37.44
2023-01-08T11:12:29.673Z,37.45
2023-01-08T11:13:29.646Z,37.33
2023-01-08T11:14:29.663Z,37.39
2023-01-08T11:15:29.619Z,37.26
2023-01-08T11:16:29.643Z,37.23
2023-01-08T11:17:29.594Z,37.15
2023-01-08T11:18:29.618Z,37.24
2023-01-08T11:19:29.601Z,37.10
2023-01-08T11:20:29.575Z,37.12
2023-01-08T11:21:29.565Z,37.08
2023-01-08T11:22:29.553Z,37.09
2023-01-08T11:23:29.570Z,37.11
2023-01-08T11:24:29.544Z,37.01
2023-01-08T11:25:29.565Z,36.96
2023-01-08T11:26:29.516Z,36.99
2023-01-08T11:27:29.519Z,36.97
2023-01-08T11:28:29.620Z,36.91
2023-01-08T11:29:29.497Z,36.89
2023-01-08T11:30:29.504Z,36.92
2023-01-08T11:31:29.539Z,36.83
2023-01-08T11:32:29.465Z,36.78
2023-01-08T11:33:29.483Z,36.82
2023-01-08T11:34:29.453Z,36.75
2023-01-08T11:35:29.481Z,36.74
2023-01-08T11:36:29.439Z,36.69
2023-01-08T11:37:29.435Z,36.70
2023-01-08T11:38:29.568Z,36.57
2023-01-08T11:39:29.416Z,36.60
2023-01-08T11:40:29.420Z,36.68
2023-01-08T11:41:29.415Z,36.59
2023-01-08T11:42:29.400Z,36.64
2023-01-08T11:43:29.368Z,36.39
2023-01-08T11:44:29.368Z,36.50
2023-01-08T11:45:29.410Z,36.52
2023-01-08T11:46:29.356Z,36.52
2023-01-08T11:47:29.338Z,36.52
2023-01-08T11:48:29.337Z,36.42
2023-01-08T11:49:29.328Z,36.39
2023-01-08T11:50:29.350Z,36.35
2023-01-08T11:51:29.306Z,36.42
2023-01-08T11:52:29.298Z,36.59
2023-01-08T11:53:29.296Z,36.72
2023-01-08T11:54:29.300Z,36.61
2023-01-08T11:55:29.270Z,36.54
2023-01-08T11:56:29.293Z,36.60
2023-01-08T11:57:29.271Z,36.99
2023-01-08T11:58:29.254Z,37.88
2023-01-08T11:59:29.285Z,37.52
2023-01-08T12:00:29.232Z,37.56
2023-01-08T12:01:29.251Z,38.25
2023-01-08T12:02:29.219Z,38.48
2023-01-08T12:03:29.397Z,38.18
2023-01-08T12:04:29.223Z,38.21
2023-01-08T12:05:29.185Z,38.70
2023-01-08T12:06:29.184Z,39.81
2023-01-08T12:07:29.169Z,39.50
2023-01-08T12:08:29.163Z,39.54
2023-01-08T12:09:29.145Z,39.36
2023-01-08T12:10:29.174Z,39.48
2023-01-08T12:11:29.128Z,39.22
2023-01-08T12:12:29.148Z,39.07
2023-01-08T12:13:29.108Z,39.06
2023-01-08T12:14:29.111Z,38.89
2023-01-08T12:15:29.101Z,38.86
2023-01-08T12:16:29.173Z,38.86
2023-01-08T12:17:29.075Z,38.74
2023-01-08T12:18:29.099Z,38.61
2023-01-08T12:19:29.066Z,38.71
2023-01-08T12:20:29.104Z,38.69
2023-01-08T12:21:29.055Z,38.65
2023-01-08T12:22:29.080Z,38.56
2023-01-08T12:23:29.032Z,38.47
2023-01-08T12:24:29.038Z,38.53
2023-01-08T12:25:29.030Z,38.43
2023-01-08T12:26:29.061Z,38.41
2023-01-08T12:27:54.637Z,38.42
2023-01-08T12:28:30.051Z,38.44
2023-01-08T12:29:28.982Z,38.40
2023-01-08T12:30:28.980Z,38.28
2023-01-08T12:31:29.018Z,37.82
2023-01-08T12:32:28.975Z,37.43
2023-01-08T12:33:28.943Z,37.37
2023-01-08T12:34:28.948Z,36.78
2023-01-08T12:35:28.931Z,37.00
2023-01-08T12:36:28.937Z,37.06
2023-01-08T12:37:28.908Z,37.02
2023-01-08T12:38:28.925Z,37.15
2023-01-08T12:39:28.882Z,37.03
2023-01-08T12:40:28.880Z,37.27
2023-01-08T12:41:28.875Z,37.71
2023-01-08T12:42:28.865Z,37.94
2023-01-08T12:43:28.902Z,37.89
2023-01-08T12:44:28.847Z,37.70
2023-01-08T12:45:28.917Z,37.40
2023-01-08T12:46:28.843Z,37.22
2023-01-08T12:47:28.831Z,37.00
2023-01-08T12:48:28.810Z,36.92
2023-01-08T12:49:28.811Z,36.83
2023-01-08T12:50:28.786Z,36.64
2023-01-08T12:51:28.812Z,36.68
2023-01-08T12:52:28.800Z,36.53